createdAt,value
2023-04-20T00:00:19.723Z,62.45
2023-04-20T00:05:26.160Z,64.35
2023-04-20T00:10:32.119Z,66.57
2023-04-20T00:20:46.646Z,68.47
2023-04-20T00:25:53.219Z,56.92
2023-04-20T00:30:58.789Z,66.18
2023-04-20T00:36:05.379Z,56.75
2023-04-20T00:41:11.625Z,63.17
2023-04-20T00:46:18.641Z,41.47
2023-04-20T00:51:25.165Z,53.33
2023-04-20T00:56:30.937Z,72.55
2023-04-20T01:06:46.829Z,54.28
2023-04-20T01:12:03.578Z,58.97
2023-04-20T01:17:09.461Z,55.88
2023-04-20T01:27:27.548Z,68.55
2023-04-20T01:32:40.204Z,55.13
2023-04-20T01:37:47.238Z,54.63
2023-04-20T01:42:53.605Z,56.92
2023-04-20T01:48:03.405Z,54.42
2023-04-20T01:53:11.221Z,56.92
2023-04-20T02:03:26.188Z,57.75
2023-04-20T02:08:33.620Z,54.70
2023-04-20T02:13:39.753Z,61.83
2023-04-20T02:18:47.795Z,52.22
2023-04-20T02:23:53.267Z,58.22
2023-04-20T02:29:03.282Z,55.80
2023-04-20T02:34:10.851Z,56.08
2023-04-20T02:39:17.486Z,59.15
2023-04-20T02:44:23.014Z,60.75
2023-04-20T02:54:35.976Z,64.55
2023-04-20T02:59:42.549Z,68.35
2023-04-20T03:04:55.694Z,62.72
2023-04-20T03:10:03.067Z,60.50
2023-04-20T03:15:25.577Z,67.25
2023-04-20T03:20:42.003Z,48.95
2023-04-20T03:25:47.887Z,50.78
2023-04-20T03:31:03.166Z,69.05
2023-04-20T03:36:09.314Z,66.78
2023-04-20T03:41:15.155Z,68.30
2023-04-20T03:51:28.892Z,65.95
2023-04-20T03:56:36.406Z,65.97
2023-04-20T04:01:43.760Z,64.18
2023-04-20T04:06:51.481Z,52.67
2023-04-20T04:11:56.860Z,62.92
2023-04-20T04:17:05.701Z,62.30
2023-04-20T04:22:19.296Z,44.90
2023-04-20T04:27:46.120Z,52.70
2023-04-20T04:32:52.172Z,58.53
2023-04-20T04:37:58.861Z,60.45
2023-04-20T04:43:05.490Z,65.32
2023-04-20T04:48:13.706Z,65.60
2023-04-20T04:53:19.456Z,68.95
2023-04-20T04:58:25.117Z,65.38
2023-04-20T05:08:37.315Z,74.38
2023-04-20T05:13:43.229Z,68.05
2023-04-20T05:18:48.913Z,77.70
2023-04-20T05:29:03.436Z,62.80
2023-04-20T05:34:09.233Z,76.30
2023-04-20T05:39:14.808Z,72.53
2023-04-20T05:44:20.126Z,70.72
2023-04-20T05:49:25.692Z,74.40
2023-04-20T05:54:31.366Z,74.55
2023-04-20T05:59:36.969Z,70.35
2023-04-20T06:04:44.136Z,67.93
2023-04-20T06:09:49.678Z,78.00
2023-04-20T06:14:55.749Z,79.50
2023-04-20T06:20:04.330Z,67.47
2023-04-20T06:25:10.688Z,75.68
2023-04-20T06:30:19.404Z,70.30
2023-04-20T06:35:26.369Z,85.03
2023-04-20T06:40:33.739Z,78.20
2023-04-20T06:45:40.688Z,80.10
2023-04-20T06:50:51.170Z,82.82
2023-04-20T06:55:59.726Z,84.55
2023-04-20T07:01:07.209Z,84.03
2023-04-20T07:06:14.336Z,84.95
2023-04-20T07:11:24.136Z,89.60
2023-04-20T07:27:48.081Z,84.97
2023-04-20T07:32:58.751Z,81.18
2023-04-20T07:38:08.878Z,92.72
2023-04-20T07:43:16.440Z,89.40
2023-04-20T07:48:24.282Z,88.43
2023-04-20T07:53:32.876Z,85.00
2023-04-20T07:58:44.389Z,63.25
2023-04-20T08:03:50.877Z,74.63
2023-04-20T08:08:57.250Z,73.88
2023-04-20T08:14:05.224Z,73.50
2023-04-20T08:24:20.886Z,69.40
2023-04-20T08:29:27.962Z,66.75
2023-04-20T08:34:33.887Z,65.35
2023-04-20T08:39:40.508Z,65.57
2023-04-20T08:44:46.120Z,65.38
2023-04-20T08:55:00.745Z,65.25
2023-04-20T09:05:30.775Z,61.80
2023-04-20T09:10:44.415Z,64.35
2023-04-20T09:15:52.536Z,65.25
2023-04-20T09:20:58.188Z,59.90
2023-04-20T09:31:24.774Z,64.53
2023-04-20T09:36:47.777Z,60.65
2023-04-20T09:41:59.612Z,61.72
2023-04-20T09:47:06.058Z,60.08
2023-04-20T09:52:12.173Z,61.33
2023-04-20T09:57:18.433Z,62.80
2023-04-20T10:02:24.322Z,61.65
2023-04-20T10:07:32.081Z,62.42
2023-04-20T10:12:50.578Z,61.67
2023-04-20T10:17:56.388Z,63.08
2023-04-20T10:23:13.032Z,59.90
2023-04-20T10:28:19.515Z,56.97
2023-04-20T10:33:24.808Z,56.08
2023-04-20T10:38:38.328Z,54.70
2023-04-20T10:43:47.872Z,48.40
2023-04-20T10:48:58.248Z,49.45
2023-04-20T10:54:10.550Z,45.67
2023-04-20T10:59:20.791Z,48.67
2023-04-20T11:04:34.194Z,49.20
2023-04-20T11:09:40.236Z,45.88
2023-04-20T11:15:02.112Z,47.35
2023-04-20T11:20:15.854Z,46.35
2023-04-20T11:25:21.433Z,48.30
2023-04-20T11:30:28.607Z,50.28
2023-04-20T11:35:40.126Z,50.63
2023-04-20T11:40:48.573Z,45.22
2023-04-20T11:45:54.625Z,44.53
2023-04-20T11:51:01.300Z,47.00
2023-04-20T11:56:07.706Z,46.75
2023-04-20T12:01:14.954Z,48.40
2023-04-20T12:06:20.635Z,50.88
2023-04-20T12:16:32.030Z,46.23
2023-04-20T12:21:38.103Z,47.38
2023-04-20T12:26:44.130Z,47.83
2023-04-20T12:31:49.723Z,47.10
2023-04-20T12:36:56.248Z,49.28
2023-04-20T12:42:25.361Z,47.15
2023-04-20T12:47:36.680Z,46.95
2023-04-20T12:52:42.480Z,45.42
2023-04-20T12:57:52.418Z,45.40
2023-04-20T13:03:36.729Z,47.08
2023-04-20T13:08:53.162Z,47.35
2023-04-20T13:13:59.870Z,46.13
2023-04-20T13:19:06.761Z,46.80
2023-04-20T13:24:12.770Z,45.75
2023-04-20T13:29:19.295Z,46.80
2023-04-20T13:34:27.865Z,46.67
2023-04-20T13:39:43.196Z,47.72
2023-04-20T13:44:51.616Z,46.42
2023-04-20T13:50:00.789Z,44.13
2023-04-20T13:55:16.511Z,46.50
2023-04-20T14:00:28.563Z,45.50
2023-04-20T14:05:46.070Z,41.55
2023-04-20T14:10:52.027Z,45.13
2023-04-20T14:16:02.640Z,44.72
2023-04-20T14:21:14.578Z,44.40
2023-04-20T14:26:21.711Z,44.72
2023-04-20T14:31:27.759Z,44.47
2023-04-20T14:36:39.748Z,44.92
2023-04-20T14:41:48.581Z,44.78
2023-04-20T14:46:58.540Z,42.60
2023-04-20T14:52:12.748Z,42.83
2023-04-20T14:57:30.034Z,44.85
2023-04-20T15:08:03.373Z,44.83
2023-04-20T15:13:14.811Z,39.35
2023-04-20T15:18:21.287Z,31.67
2023-04-20T15:23:27.192Z,43.03
2023-04-20T15:28:33.533Z,46.13
2023-04-20T15:33:44.626Z,42.72
2023-04-20T15:38:54.583Z,43.80
2023-04-20T15:44:01.934Z,45.47
2023-04-20T15:49:08.965Z,42.95
2023-04-20T15:54:14.971Z,43.95
2023-04-20T15:59:21.401Z,45.85
2023-04-20T16:04:27.581Z,45.80
2023-04-20T16:09:47.502Z,41.40
2023-04-20T16:15:14.237Z,41.13
2023-04-20T16:20:20.296Z,32.50
2023-04-20T16:25:29.854Z,45.75
2023-04-20T16:30:35.266Z,37.20
2023-04-20T16:35:42.352Z,41.40
2023-04-20T16:40:47.964Z,34.33
2023-04-20T16:45:54.065Z,38.80
2023-04-20T16:51:00.000Z,34.20
2023-04-20T16:56:05.432Z,40.97
2023-04-20T17:01:10.939Z,39.97
2023-04-20T17:06:16.684Z,42.95
2023-04-20T17:11:22.888Z,51.70
2023-04-20T17:16:28.722Z,43.95
2023-04-20T17:26:40.027Z,49.05
2023-04-20T17:37:10.197Z,42.67
2023-04-20T17:42:15.646Z,38.22
2023-04-20T17:47:21.022Z,35.78
2023-04-20T17:52:26.620Z,46.85
2023-04-20T17:57:32.105Z,43.80
2023-04-20T18:02:37.865Z,49.45
2023-04-20T18:12:48.656Z,50.17
2023-04-20T18:17:54.568Z,51.03
2023-04-20T18:23:00.208Z,32.42
2023-04-20T18:28:05.981Z,48.45
2023-04-20T18:33:11.368Z,41.05
2023-04-20T18:38:18.588Z,37.70
2023-04-20T18:43:24.580Z,32.40
2023-04-20T18:48:30.352Z,41.58
2023-04-20T18:53:36.320Z,39.53
2023-04-20T18:58:41.615Z,45.42
2023-04-20T19:03:48.154Z,46.37
2023-04-20T19:08:54.129Z,44.63
2023-04-20T19:13:59.586Z,41.13
2023-04-20T19:19:08.023Z,36.08
2023-04-20T19:24:13.721Z,30.67
2023-04-20T19:29:19.027Z,43.83
2023-04-20T19:34:24.434Z,38.67
2023-04-20T19:39:30.942Z,36.78
2023-04-20T19:44:37.409Z,45.25
2023-04-20T19:49:43.126Z,46.53
2023-04-20T19:59:53.566Z,44.70
2023-04-20T20:04:58.800Z,37.88
2023-04-20T20:10:05.588Z,46.70
2023-04-20T20:15:11.400Z,48.90
2023-04-20T20:25:27.870Z,49.92
2023-04-20T20:30:33.997Z,49.47
2023-04-20T20:35:39.945Z,48.22
2023-04-20T20:45:50.669Z,37.08
2023-04-20T20:50:56.229Z,48.20
2023-04-20T20:56:01.827Z,42.92
2023-04-20T21:01:07.713Z,41.13
2023-04-20T21:06:13.411Z,43.60
2023-04-20T21:11:18.790Z,42.72
2023-04-20T21:16:24.973Z,40.78
2023-04-20T21:21:30.424Z,42.40
2023-04-20T21:26:39.817Z,36.10
2023-04-20T21:31:45.235Z,40.05
2023-04-20T21:36:51.080Z,34.15
2023-04-20T21:47:03.954Z,50.42
2023-04-20T21:52:09.798Z,40.22
2023-04-20T22:02:20.227Z,44.50
2023-04-20T22:07:26.029Z,40.50
2023-04-20T22:12:39.505Z,41.92
2023-04-20T22:17:49.177Z,43.42
2023-04-20T22:22:54.798Z,41.55
2023-04-20T22:28:00.410Z,44.33
2023-04-20T22:33:05.942Z,49.85
2023-04-20T22:38:11.588Z,50.75
2023-04-20T22:43:17.693Z,47.25
2023-04-20T22:48:23.842Z,53.50
2023-04-20T22:53:33.131Z,60.58
2023-04-20T22:58:38.524Z,58.88
2023-04-20T23:03:44.501Z,44.40
2023-04-20T23:08:51.133Z,45.33
2023-04-20T23:13:57.033Z,44.53
2023-04-20T23:24:08.137Z,51.70
2023-04-20T23:29:13.774Z,48.35
2023-04-20T23:34:20.643Z,49.22
2023-04-20T23:39:26.808Z,44.75
2023-04-20T23:44:32.509Z,42.55
2023-04-20T23:49:38.079Z,50.25
2023-04-20T23:54:43.746Z,52.38
2023-04-20T23:59:50.195Z,44.15
